Time;durP1;ratioP1;P1;durP2;ratioP2;P2;SDS_P1;SDS_P2;PMS_P1;PMS_P2;Temp;Humidity;BMP_temperature;BMP_pressure;BME280_temperature;BME280_humidity;BME280_pressure;Samples;Min_cycle;Max_cycle;Signal;HPM_P1;HPM_P2
2022/01/28 00:00:11;;;;;;;17.73;2.88;;;;;;;;;;5071641;28;20044;-67
2022/01/28 00:04:49;;;;;;;19.42;3.28;;;;;;;;;;5070853;28;20398;-67
2022/01/28 00:07:15;;;;;;;17.55;3.47;;;;;;;;;;5072475;28;20083;-67
2022/01/28 00:09:41;;;;;;;18.23;3.08;;;;;;;;;;5073119;28;20052;-67
2022/01/28 00:12:08;;;;;;;17.10;3.00;;;;;;;;;;5074194;28;20123;-67
2022/01/28 00:17:44;;;;;;;18.42;2.58;;;;;;;;;;5074500;28;20040;-67
2022/01/28 00:39:08;;;;;;;11.30;2.15;;;;;;;;;;5073884;28;20045;-67
2022/01/28 00:41:34;;;;;;;10.90;1.90;;;;;;;;;;5072980;28;20067;-67
2022/01/28 00:44:00;;;;;;;16.27;2.35;;;;;;;;;;5072602;28;20042;-67
2022/01/28 00:46:25;;;;;;;10.18;1.70;;;;;;;;;;5074190;28;20448;-67
2022/01/28 00:48:51;;;;;;;10.60;2.08;;;;;;;;;;5074520;28;20040;-67
2022/01/28 00:51:17;;;;;;;11.10;2.17;;;;;;;;;;5073735;28;20036;-67
2022/01/28 00:53:43;;;;;;;13.98;2.15;;;;;;;;;;5074010;28;20149;-67
2022/01/28 00:56:09;;;;;;;13.02;2.47;;;;;;;;;;5073670;28;20106;-67
2022/01/28 00:58:35;;;;;;;11.02;2.35;;;;;;;;;;5073882;28;20040;-67
2022/01/28 01:01:01;;;;;;;13.85;2.40;;;;;;;;;;5073441;28;20025;-67
2022/01/28 01:03:27;;;;;;;19.40;3.17;;;;;;;;;;5074073;28;20502;-67
2022/01/28 01:05:53;;;;;;;12.48;2.10;;;;;;;;;;5073311;28;20068;-67
2022/01/28 01:08:19;;;;;;;14.60;2.40;;;;;;;;;;5071787;28;20045;-67
2022/01/28 01:10:46;;;;;;;13.27;2.38;;;;;;;;;;5065653;28;20044;-67
2022/01/28 01:13:12;;;;;;;13.45;2.58;;;;;;;;;;5072134;28;20044;-67
2022/01/28 01:15:42;;;;;;;15.23;2.40;;;;;;;;;;5073264;28;20110;-67
2022/01/28 01:20:58;;;;;;;13.90;2.65;;;;;;;;;;5067998;28;20041;-67
2022/01/28 01:23:34;;;;;;;10.63;2.67;;;;;;;;;;5063527;28;20044;-67
2022/01/28 01:28:33;;;;;;;18.92;2.72;;;;;;;;;;5063918;28;20041;-67
2022/01/28 01:31:01;;;;;;;12.80;2.50;;;;;;;;;;5069853;28;20402;-67
2022/01/28 01:33:29;;;;;;;17.77;2.63;;;;;;;;;;5073169;28;20040;-67
2022/01/28 01:35:55;;;;;;;14.02;2.75;;;;;;;;;;5066896;28;20086;-67
2022/01/28 01:38:25;;;;;;;11.70;2.42;;;;;;;;;;5071135;28;20041;-67
2022/01/28 01:40:55;;;;;;;17.52;2.40;;;;;;;;;;5100800;22;20075;-66
2022/01/28 01:43:39;;;;;;;16.88;2.72;;;;;;;;;;5112954;28;20127;-66
2022/01/28 01:54:07;;;;;;;16.38;2.65;;;;;;;;;;5110308;28;20046;-66
2022/01/28 01:56:34;;;;;;;17.10;3.42;;;;;;;;;;5112877;28;20571;-66
2022/01/28 01:59:00;;;;;;;16.90;3.85;;;;;;;;;;5111038;28;20134;-66
2022/01/28 02:01:25;;;;;;;13.75;2.53;;;;;;;;;;5104899;28;20023;-66
2022/01/28 02:03:52;;;;;;;16.85;2.53;;;;;;;;;;5092038;28;20062;-66
2022/01/28 02:06:18;;;;;;;20.40;3.75;;;;;;;;;;5103445;28;20127;-66
2022/01/28 02:08:44;;;;;;;21.58;3.13;;;;;;;;;;5109284;28;20039;-66
2022/01/28 02:11:10;;;;;;;16.08;3.45;;;;;;;;;;5112124;28;20565;-66
2022/01/28 02:13:38;;;;;;;18.05;2.65;;;;;;;;;;5113051;28;20069;-66
2022/01/28 02:16:04;;;;;;;18.50;3.00;;;;;;;;;;5110467;28;20072;-66
2022/01/28 02:18:30;;;;;;;14.25;3.33;;;;;;;;;;5113253;28;20036;-66
2022/01/28 02:21:04;;;;;;;17.13;3.05;;;;;;;;;;5112531;28;20036;-66
2022/01/28 02:23:30;;;;;;;15.85;3.85;;;;;;;;;;5112798;28;20035;-66
2022/01/28 02:26:00;;;;;;;14.40;2.80;;;;;;;;;;5112311;28;20040;-66
2022/01/28 02:28:28;;;;;;;19.60;2.55;;;;;;;;;;5113132;28;20039;-66
2022/01/28 02:30:55;;;;;;;14.15;2.88;;;;;;;;;;5106448;28;20044;-66
2022/01/28 02:33:24;;;;;;;16.83;3.33;;;;;;;;;;5111800;28;20046;-65
2022/01/28 02:35:50;;;;;;;16.73;3.05;;;;;;;;;;5111972;28;20039;-66
2022/01/28 02:38:17;;;;;;;19.65;3.25;;;;;;;;;;5112125;28;20123;-66
2022/01/28 02:40:49;;;;;;;18.88;2.60;;;;;;;;;;5111409;28;20071;-66
2022/01/28 02:45:48;;;;;;;17.23;2.60;;;;;;;;;;5112165;28;20365;-65
2022/01/28 02:48:19;;;;;;;17.90;3.42;;;;;;;;;;5112762;28;20044;-66
2022/01/28 02:53:39;;;;;;;21.42;3.47;;;;;;;;;;5112242;28;20039;-66
2022/01/28 02:56:14;;;;;;;22.95;3.25;;;;;;;;;;5111549;28;20050;-66
2022/01/28 02:58:40;;;;;;;21.05;3.35;;;;;;;;;;5112541;28;20111;-66
2022/01/28 03:01:06;;;;;;;20.65;2.90;;;;;;;;;;5109930;28;20035;-66
2022/01/28 03:03:32;;;;;;;22.83;3.40;;;;;;;;;;5107667;28;20042;-66
2022/01/28 03:05:58;;;;;;;18.90;3.28;;;;;;;;;;5109253;28;20111;-66
2022/01/28 03:08:28;;;;;;;16.10;2.90;;;;;;;;;;5111815;28;20039;-66
2022/01/28 03:16:14;;;;;;;13.60;2.58;;;;;;;;;;5109889;28;20047;-66
2022/01/28 03:21:22;;;;;;;19.63;2.70;;;;;;;;;;5110773;28;20032;-66
2022/01/28 03:23:48;;;;;;;15.40;3.35;;;;;;;;;;5111978;28;20381;-66
2022/01/28 03:26:15;;;;;;;15.10;2.83;;;;;;;;;;5110814;28;20031;-65
2022/01/28 03:28:41;;;;;;;17.17;2.85;;;;;;;;;;5112481;28;20426;-66
2022/01/28 03:31:07;;;;;;;15.77;2.83;;;;;;;;;;5111705;28;20044;-65
2022/01/28 03:33:33;;;;;;;14.77;3.05;;;;;;;;;;5112038;28;20118;-65
2022/01/28 03:36:02;;;;;;;20.98;3.10;;;;;;;;;;5111588;28;20035;-66
2022/01/28 03:38:28;;;;;;;17.73;2.85;;;;;;;;;;5111648;28;20626;-65
2022/01/28 03:40:56;;;;;;;16.70;3.00;;;;;;;;;;5111376;28;20119;-65
2022/01/28 03:43:22;;;;;;;16.63;3.25;;;;;;;;;;5115526;28;20050;-66
2022/01/28 03:45:48;;;;;;;16.08;2.75;;;;;;;;;;5115057;28;20054;-66
2022/01/28 03:48:14;;;;;;;20.92;2.88;;;;;;;;;;5115615;28;20492;-66
2022/01/28 03:50:40;;;;;;;22.10;3.55;;;;;;;;;;5115188;28;20084;-66
2022/01/28 03:53:08;;;;;;;15.85;2.50;;;;;;;;;;5115669;28;20043;-66
2022/01/28 03:55:34;;;;;;;19.23;3.85;;;;;;;;;;5114667;28;20032;-65
2022/01/28 03:58:00;;;;;;;16.42;3.17;;;;;;;;;;5115447;28;20096;-66
2022/01/28 04:00:29;;;;;;;15.68;3.25;;;;;;;;;;5114478;28;20036;-66
2022/01/28 04:03:06;;;;;;;18.63;3.00;;;;;;;;;;5110961;28;20047;-66
2022/01/28 04:13:43;;;;;;;13.10;2.70;;;;;;;;;;5115856;28;20410;-65
2022/01/28 04:18:48;;;;;;;19.48;3.10;;;;;;;;;;5115324;28;20130;-66
2022/01/28 04:21:14;;;;;;;20.60;3.35;;;;;;;;;;5114180;28;20035;-66
2022/01/28 04:23:40;;;;;;;21.23;3.55;;;;;;;;;;5115042;28;20044;-66
2022/01/28 04:26:06;;;;;;;20.23;3.22;;;;;;;;;;5114747;28;20043;-66
2022/01/28 04:28:32;;;;;;;22.27;3.17;;;;;;;;;;5114487;28;20382;-66
2022/01/28 04:30:58;;;;;;;17.42;2.95;;;;;;;;;;5114130;28;20085;-66
2022/01/28 04:33:24;;;;;;;23.52;3.65;;;;;;;;;;5114851;28;20035;-66
2022/01/28 04:35:53;;;;;;;21.73;3.58;;;;;;;;;;5114479;28;20050;-66
2022/01/28 04:41:04;;;;;;;22.15;3.50;;;;;;;;;;5113480;28;20047;-66
2022/01/28 04:43:38;;;;;;;18.85;3.22;;;;;;;;;;5114835;28;20044;-65
2022/01/28 04:56:30;;;;;;;19.40;4.05;;;;;;;;;;5114376;28;20130;-66
2022/01/28 05:09:54;;;;;;;18.67;3.30;;;;;;;;;;5112250;28;20097;-65
2022/01/28 05:12:53;;;;;;;18.90;3.38;;;;;;;;;;5111968;28;20074;-66
2022/01/28 05:23:52;;;;;;;18.77;4.13;;;;;;;;;;5112569;28;20503;-66
2022/01/28 05:28:42;;;;;;;29.77;4.00;;;;;;;;;;5113955;28;20051;-65
2022/01/28 05:31:08;;;;;;;22.42;4.50;;;;;;;;;;5113124;28;20649;-65
2022/01/28 05:33:34;;;;;;;24.02;4.47;;;;;;;;;;5113787;28;20048;-65
2022/01/28 05:36:00;;;;;;;25.35;3.95;;;;;;;;;;5110102;28;20118;-65
2022/01/28 05:38:26;;;;;;;27.17;4.10;;;;;;;;;;5113149;28;20119;-66
2022/01/28 05:40:52;;;;;;;15.93;3.05;;;;;;;;;;5113164;28;20047;-66
2022/01/28 05:43:18;;;;;;;25.10;3.85;;;;;;;;;;5113285;28;20188;-66
2022/01/28 05:45:44;;;;;;;19.60;3.50;;;;;;;;;;5113419;28;20051;-66
2022/01/28 05:48:11;;;;;;;17.30;3.30;;;;;;;;;;5113570;28;20095;-66
2022/01/28 05:50:37;;;;;;;25.65;4.30;;;;;;;;;;5113036;28;20043;-66
2022/01/28 05:53:04;;;;;;;19.85;3.63;;;;;;;;;;5113187;28;20393;-65
2022/01/28 05:55:30;;;;;;;21.83;4.07;;;;;;;;;;5113233;28;20071;-66
2022/01/28 05:57:55;;;;;;;20.73;4.65;;;;;;;;;;5112738;28;20124;-66
2022/01/28 06:00:21;;;;;;;18.83;3.67;;;;;;;;;;5112734;28;20038;-66
2022/01/28 06:02:47;;;;;;;31.17;5.10;;;;;;;;;;5112560;28;20573;-66
2022/01/28 06:05:13;;;;;;;20.60;3.22;;;;;;;;;;5112129;28;20385;-65
2022/01/28 06:07:42;;;;;;;22.52;4.22;;;;;;;;;;5113691;28;20067;-66
2022/01/28 06:10:11;;;;;;;25.63;3.80;;;;;;;;;;5112907;28;20635;-66
2022/01/28 06:12:39;;;;;;;22.35;4.00;;;;;;;;;;5112700;28;20409;-66
2022/01/28 06:15:05;;;;;;;24.92;3.90;;;;;;;;;;5112361;28;20443;-66
2022/01/28 06:17:31;;;;;;;25.80;3.70;;;;;;;;;;5113215;28;20039;-65
2022/01/28 06:19:57;;;;;;;23.27;3.70;;;;;;;;;;5112611;28;20038;-65
2022/01/28 06:22:23;;;;;;;25.55;4.35;;;;;;;;;;5090616;28;20442;-65
2022/01/28 06:24:49;;;;;;;24.70;4.55;;;;;;;;;;5111200;28;20431;-65
2022/01/28 06:27:15;;;;;;;24.25;4.03;;;;;;;;;;5111927;28;20090;-65
2022/01/28 06:29:41;;;;;;;22.77;3.58;;;;;;;;;;5111328;28;20062;-66
2022/01/28 06:32:07;;;;;;;29.98;4.55;;;;;;;;;;5112293;28;20676;-66
2022/01/28 06:34:33;;;;;;;29.15;3.95;;;;;;;;;;5112662;28;20445;-66
2022/01/28 06:36:59;;;;;;;21.95;4.43;;;;;;;;;;5111861;28;20164;-66
2022/01/28 06:39:25;;;;;;;23.58;3.63;;;;;;;;;;5111126;28;20034;-66
2022/01/28 06:41:51;;;;;;;26.60;4.55;;;;;;;;;;5112041;28;20124;-66
2022/01/28 06:44:17;;;;;;;22.88;3.70;;;;;;;;;;5112242;28;20077;-66
2022/01/28 06:46:43;;;;;;;24.63;3.78;;;;;;;;;;5112580;28;20547;-66
2022/01/28 06:49:09;;;;;;;24.40;4.40;;;;;;;;;;5112543;28;20035;-66
2022/01/28 06:51:37;;;;;;;20.90;3.58;;;;;;;;;;5111293;28;20036;-66
2022/01/28 06:54:03;;;;;;;27.88;4.45;;;;;;;;;;5112343;28;20083;-66
2022/01/28 06:56:29;;;;;;;21.23;4.82;;;;;;;;;;5112472;28;20040;-66
2022/01/28 06:58:55;;;;;;;19.05;3.67;;;;;;;;;;5109818;28;20439;-66
2022/01/28 07:01:21;;;;;;;13.93;3.47;;;;;;;;;;5110082;28;20032;-66
2022/01/28 07:03:47;;;;;;;18.40;4.07;;;;;;;;;;5110461;28;20127;-66
2022/01/28 07:06:14;;;;;;;24.38;3.67;;;;;;;;;;5112251;28;20100;-66
2022/01/28 07:08:40;;;;;;;23.63;4.53;;;;;;;;;;5109160;28;20048;-66
2022/01/28 07:11:05;;;;;;;29.50;4.15;;;;;;;;;;5111502;28;20045;-66
2022/01/28 07:13:31;;;;;;;23.15;3.90;;;;;;;;;;5100483;28;20046;-66
2022/01/28 07:15:58;;;;;;;23.13;3.58;;;;;;;;;;5111640;28;20107;-66
2022/01/28 07:18:24;;;;;;;21.60;3.20;;;;;;;;;;5109895;28;20043;-66
2022/01/28 07:20:51;;;;;;;22.27;3.85;;;;;;;;;;5111874;28;20063;-66
2022/01/28 07:23:17;;;;;;;21.50;3.90;;;;;;;;;;5110992;28;20032;-66
2022/01/28 07:25:42;;;;;;;20.83;3.90;;;;;;;;;;5111922;28;20409;-66
2022/01/28 07:28:08;;;;;;;17.80;3.92;;;;;;;;;;5111157;28;20035;-65
2022/01/28 07:30:35;;;;;;;19.50;4.00;;;;;;;;;;5112362;28;20143;-65
2022/01/28 07:33:05;;;;;;;29.15;3.58;;;;;;;;;;5111744;28;20043;-66
2022/01/28 07:35:31;;;;;;;19.73;4.00;;;;;;;;;;5111257;28;20243;-66
2022/01/28 07:37:57;;;;;;;26.10;4.18;;;;;;;;;;5111701;28;20043;-66
2022/01/28 07:42:52;;;;;;;24.38;4.03;;;;;;;;;;5089773;28;20102;-65
2022/01/28 07:45:18;;;;;;;23.98;4.07;;;;;;;;;;5090186;28;20460;-65
2022/01/28 07:47:44;;;;;;;17.10;3.40;;;;;;;;;;5089550;28;20040;-65
2022/01/28 07:50:10;;;;;;;21.65;3.10;;;;;;;;;;5089590;28;20397;-65
2022/01/28 07:52:37;;;;;;;18.13;3.28;;;;;;;;;;5065337;28;20109;-65
2022/01/28 07:55:03;;;;;;;19.52;4.30;;;;;;;;;;5058622;28;20064;-65
2022/01/28 07:57:30;;;;;;;22.05;3.80;;;;;;;;;;5058101;28;20396;-65
2022/01/28 07:59:56;;;;;;;18.17;4.53;;;;;;;;;;5060428;28;20112;-65
2022/01/28 08:02:22;;;;;;;20.23;3.92;;;;;;;;;;5060500;28;20486;-65
2022/01/28 08:04:48;;;;;;;22.88;3.83;;;;;;;;;;5061656;28;20047;-65
2022/01/28 08:07:14;;;;;;;22.15;3.75;;;;;;;;;;5063085;28;20439;-65
2022/01/28 08:09:40;;;;;;;23.63;3.83;;;;;;;;;;5064760;28;20044;-65
2022/01/28 08:12:07;;;;;;;21.05;3.55;;;;;;;;;;5063308;28;20036;-65
2022/01/28 08:14:33;;;;;;;18.20;4.35;;;;;;;;;;5071290;28;20032;-65
2022/01/28 08:16:59;;;;;;;22.33;4.07;;;;;;;;;;5066961;28;20391;-65
2022/01/28 08:19:25;;;;;;;20.50;3.70;;;;;;;;;;5069595;28;20116;-65
2022/01/28 08:21:51;;;;;;;23.85;4.03;;;;;;;;;;5066884;28;20119;-65
2022/01/28 08:24:17;;;;;;;14.68;3.40;;;;;;;;;;5064805;28;20049;-65
2022/01/28 08:26:43;;;;;;;18.05;3.50;;;;;;;;;;5065053;28;20068;-65
2022/01/28 08:29:09;;;;;;;21.83;4.28;;;;;;;;;;5059234;28;20073;-65
2022/01/28 08:31:36;;;;;;;16.40;3.33;;;;;;;;;;5068059;28;20095;-65
2022/01/28 08:34:03;;;;;;;18.58;3.78;;;;;;;;;;5057618;28;20041;-65
2022/01/28 08:36:29;;;;;;;29.50;3.78;;;;;;;;;;5073907;28;20303;-65
2022/01/28 08:38:55;;;;;;;19.65;3.20;;;;;;;;;;5074025;28;20094;-67
2022/01/28 08:41:22;;;;;;;20.45;3.63;;;;;;;;;;5073976;28;20517;-66
2022/01/28 08:43:48;;;;;;;22.02;4.00;;;;;;;;;;5072202;28;20029;-67
2022/01/28 08:46:14;;;;;;;28.15;3.92;;;;;;;;;;5069004;28;20059;-67
2022/01/28 08:48:40;;;;;;;17.05;3.65;;;;;;;;;;5063278;28;20361;-67
2022/01/28 08:51:06;;;;;;;22.63;4.35;;;;;;;;;;5066885;28;20036;-67
2022/01/28 08:53:32;;;;;;;16.67;3.17;;;;;;;;;;5073143;28;20051;-67
2022/01/28 08:55:58;;;;;;;23.75;3.40;;;;;;;;;;5063560;28;20435;-67
2022/01/28 08:58:24;;;;;;;22.10;3.65;;;;;;;;;;5067503;28;20517;-67
2022/01/28 09:00:51;;;;;;;25.90;3.80;;;;;;;;;;5066127;28;20486;-67
2022/01/28 09:03:18;;;;;;;19.48;4.28;;;;;;;;;;5064226;28;20048;-67
2022/01/28 09:05:44;;;;;;;27.35;4.50;;;;;;;;;;5070877;28;20124;-66
2022/01/28 09:08:11;;;;;;;19.35;3.42;;;;;;;;;;5073996;28;20056;-67
2022/01/28 09:10:41;;;;;;;20.05;3.45;;;;;;;;;;5074137;28;20071;-67
2022/01/28 09:15:34;;;;;;;20.50;3.38;;;;;;;;;;5073075;28;20032;-67
2022/01/28 09:18:00;;;;;;;16.88;3.60;;;;;;;;;;5071821;28;20040;-67
2022/01/28 09:20:26;;;;;;;19.73;4.03;;;;;;;;;;5072764;28;20394;-67
2022/01/28 09:22:52;;;;;;;18.40;3.20;;;;;;;;;;5062302;28;20534;-67
2022/01/28 09:25:18;;;;;;;18.75;3.67;;;;;;;;;;5057350;28;20652;-67
2022/01/28 09:27:44;;;;;;;19.08;3.25;;;;;;;;;;5073723;28;20127;-67
2022/01/28 09:30:10;;;;;;;22.52;4.10;;;;;;;;;;5073610;28;20531;-67
2022/01/28 09:32:36;;;;;;;24.67;3.35;;;;;;;;;;5073255;28;20041;-67
2022/01/28 09:35:02;;;;;;;21.85;3.60;;;;;;;;;;5068771;28;20382;-67
2022/01/28 09:37:29;;;;;;;23.45;3.47;;;;;;;;;;5058977;28;20360;-67
2022/01/28 09:39:55;;;;;;;22.67;3.55;;;;;;;;;;5057298;28;20093;-67
2022/01/28 09:42:25;;;;;;;17.17;3.22;;;;;;;;;;5071852;28;20034;-67
2022/01/28 09:44:51;;;;;;;16.27;3.40;;;;;;;;;;5066068;28;20041;-68
2022/01/28 09:47:17;;;;;;;16.48;3.65;;;;;;;;;;5068725;28;20299;-67
2022/01/28 09:49:43;;;;;;;23.50;5.03;;;;;;;;;;5061037;28;20491;-66
2022/01/28 09:52:11;;;;;;;17.92;3.90;;;;;;;;;;5063819;28;20397;-66
2022/01/28 09:54:37;;;;;;;24.58;3.95;;;;;;;;;;5071204;28;20050;-66
2022/01/28 09:57:04;;;;;;;25.25;3.78;;;;;;;;;;5065205;28;20398;-66
2022/01/28 09:59:31;;;;;;;23.52;4.07;;;;;;;;;;5068827;28;20043;-66
2022/01/28 10:01:57;;;;;;;27.33;3.88;;;;;;;;;;5064387;28;20043;-66
2022/01/28 10:04:23;;;;;;;22.77;3.85;;;;;;;;;;5065221;28;20036;-67
2022/01/28 10:06:50;;;;;;;17.55;3.95;;;;;;;;;;5064164;28;21542;-67
2022/01/28 10:09:18;;;;;;;21.65;4.10;;;;;;;;;;5071578;28;20543;-67
2022/01/28 10:11:46;;;;;;;23.10;3.92;;;;;;;;;;5063728;28;20059;-66
2022/01/28 10:16:39;;;;;;;24.73;4.28;;;;;;;;;;5061906;28;20139;-68
2022/01/28 10:19:11;;;;;;;21.95;3.22;;;;;;;;;;5064201;28;20044;-67
2022/01/28 10:21:37;;;;;;;19.83;3.78;;;;;;;;;;5064434;28;20135;-68
2022/01/28 10:24:18;;;;;;;26.67;4.32;;;;;;;;;;5062936;28;20132;-68
2022/01/28 10:26:49;;;;;;;22.17;3.78;;;;;;;;;;5067012;28;20043;-68
2022/01/28 10:29:17;;;;;;;21.48;4.13;;;;;;;;;;5064654;28;20041;-67
2022/01/28 10:31:45;;;;;;;23.60;3.55;;;;;;;;;;5049194;28;20157;-68
2022/01/28 10:34:12;;;;;;;19.25;3.75;;;;;;;;;;5047221;28;20036;-67
2022/01/28 10:36:38;;;;;;;22.15;4.90;;;;;;;;;;5052315;28;20218;-68
2022/01/28 10:39:04;;;;;;;24.90;4.50;;;;;;;;;;5060641;28;20037;-67
2022/01/28 10:41:30;;;;;;;27.33;4.03;;;;;;;;;;5060392;28;20033;-68
2022/01/28 10:43:57;;;;;;;21.55;4.13;;;;;;;;;;5058247;28;20057;-68
2022/01/28 10:46:34;;;;;;;23.70;4.43;;;;;;;;;;5061890;28;20093;-68
2022/01/28 10:49:02;;;;;;;25.50;4.53;;;;;;;;;;5061163;28;20056;-68
2022/01/28 10:51:44;;;;;;;23.33;4.57;;;;;;;;;;5063778;28;20055;-68
2022/01/28 10:54:11;;;;;;;22.65;3.72;;;;;;;;;;5061399;28;20128;-67
2022/01/28 10:56:56;;;;;;;20.95;3.95;;;;;;;;;;5064222;28;20052;-67
2022/01/28 10:59:23;;;;;;;21.70;3.83;;;;;;;;;;5063267;28;20044;-67
2022/01/28 11:01:49;;;;;;;19.80;3.50;;;;;;;;;;5064345;28;20032;-67
2022/01/28 11:04:17;;;;;;;22.80;3.58;;;;;;;;;;5061732;28;20142;-67
2022/01/28 11:06:44;;;;;;;29.38;4.18;;;;;;;;;;5061628;28;20058;-67
2022/01/28 11:09:11;;;;;;;22.23;3.30;;;;;;;;;;5058056;28;20074;-67
2022/01/28 11:11:37;;;;;;;21.42;3.67;;;;;;;;;;5061510;28;20068;-67
2022/01/28 11:14:04;;;;;;;24.85;4.15;;;;;;;;;;5063109;28;20094;-67
2022/01/28 11:16:30;;;;;;;20.17;3.85;;;;;;;;;;5060911;28;20119;-67
2022/01/28 11:18:57;;;;;;;28.75;4.03;;;;;;;;;;5068457;28;20123;-67
2022/01/28 11:21:44;;;;;;;20.98;3.70;;;;;;;;;;5061339;28;20529;-68
2022/01/28 11:24:17;;;;;;;19.85;3.78;;;;;;;;;;5065829;28;20490;-67
2022/01/28 11:27:01;;;;;;;22.27;3.78;;;;;;;;;;5059678;28;20036;-67
2022/01/28 11:29:28;;;;;;;23.75;3.88;;;;;;;;;;5066829;28;20037;-68
2022/01/28 11:32:08;;;;;;;26.55;3.90;;;;;;;;;;5065384;28;20045;-67
2022/01/28 11:34:35;;;;;;;21.70;3.53;;;;;;;;;;5060168;28;20068;-67
2022/01/28 11:37:04;;;;;;;20.95;4.10;;;;;;;;;;5057025;28;20517;-67
2022/01/28 11:39:30;;;;;;;23.30;3.80;;;;;;;;;;5060722;28;20040;-67
2022/01/28 11:42:10;;;;;;;23.85;4.18;;;;;;;;;;5069117;28;20051;-67
2022/01/28 11:44:40;;;;;;;21.33;3.13;;;;;;;;;;5062229;28;20047;-67
2022/01/28 11:47:08;;;;;;;22.40;4.07;;;;;;;;;;5063973;28;20396;-67
2022/01/28 11:49:51;;;;;;;21.13;3.97;;;;;;;;;;5060879;28;20079;-67
2022/01/28 11:52:25;;;;;;;25.25;3.90;;;;;;;;;;5062793;28;20040;-67
2022/01/28 11:54:51;;;;;;;20.65;3.03;;;;;;;;;;5061456;28;20037;-67
2022/01/28 11:57:17;;;;;;;24.13;3.92;;;;;;;;;;5058796;28;20139;-67
2022/01/28 11:59:44;;;;;;;28.05;3.35;;;;;;;;;;5060961;28;20041;-67
2022/01/28 12:02:11;;;;;;;23.58;3.92;;;;;;;;;;5056014;28;20037;-67
2022/01/28 12:04:41;;;;;;;22.58;3.15;;;;;;;;;;5066728;28;20044;-67
2022/01/28 12:07:15;;;;;;;25.23;3.22;;;;;;;;;;5064733;28;20036;-67
2022/01/28 12:09:45;;;;;;;22.15;3.13;;;;;;;;;;5070301;28;20072;-68
2022/01/28 12:12:13;;;;;;;23.97;3.73;;;;;;;;;;5066304;28;20032;-68
2022/01/28 12:15:11;;;;;;;20.23;3.30;;;;;;;;;;5060327;28;20471;-68
2022/01/28 12:17:38;;;;;;;17.73;3.47;;;;;;;;;;5067661;28;20045;-67
2022/01/28 12:20:16;;;;;;;21.52;4.05;;;;;;;;;;5065258;28;20037;-67
2022/01/28 12:23:00;;;;;;;18.95;3.35;;;;;;;;;;5061629;28;20041;-67
2022/01/28 12:25:35;;;;;;;24.90;3.95;;;;;;;;;;5070351;28;20119;-67
2022/01/28 12:28:15;;;;;;;18.65;2.97;;;;;;;;;;5064071;28;20046;-67
2022/01/28 12:30:45;;;;;;;25.05;4.18;;;;;;;;;;5066743;28;20506;-67
2022/01/28 12:33:11;;;;;;;22.73;3.97;;;;;;;;;;5064811;28;20532;-68
2022/01/28 12:35:38;;;;;;;19.38;3.53;;;;;;;;;;5064688;28;20048;-67
2022/01/28 12:38:05;;;;;;;22.85;3.70;;;;;;;;;;5066035;28;20101;-67
2022/01/28 12:40:41;;;;;;;24.88;3.78;;;;;;;;;;5060536;28;20119;-68
2022/01/28 12:43:08;;;;;;;17.60;2.70;;;;;;;;;;5071013;28;20040;-67
2022/01/28 12:45:35;;;;;;;18.23;2.97;;;;;;;;;;5071915;28;20098;-67
2022/01/28 12:48:01;;;;;;;18.25;2.78;;;;;;;;;;5074318;28;20060;-68
2022/01/28 12:50:28;;;;;;;20.10;3.33;;;;;;;;;;5068864;28;20040;-67
2022/01/28 12:52:55;;;;;;;15.18;2.80;;;;;;;;;;5066704;28;20044;-68
2022/01/28 12:55:21;;;;;;;18.17;3.08;;;;;;;;;;5064335;28;20380;-67
2022/01/28 12:57:47;;;;;;;17.05;2.90;;;;;;;;;;5066682;28;20136;-68
2022/01/28 13:00:15;;;;;;;21.38;3.75;;;;;;;;;;5060889;28;20520;-67
2022/01/28 13:05:54;;;;;;;16.83;3.58;;;;;;;;;;5069443;28;20452;-68
2022/01/28 13:08:27;;;;;;;17.52;2.80;;;;;;;;;;5062389;28;20055;-68
2022/01/28 13:10:53;;;;;;;13.38;2.67;;;;;;;;;;5067471;28;20051;-68
2022/01/28 13:13:19;;;;;;;20.83;3.05;;;;;;;;;;5065166;28;20454;-68
2022/01/28 13:15:53;;;;;;;20.90;4.20;;;;;;;;;;5067123;28;20047;-67
2022/01/28 13:18:19;;;;;;;12.90;2.33;;;;;;;;;;5071657;28;20402;-68
2022/01/28 13:20:45;;;;;;;18.15;3.30;;;;;;;;;;5065484;28;20039;-68
2022/01/28 13:23:11;;;;;;;15.55;2.90;;;;;;;;;;5068151;28;20033;-67
2022/01/28 13:25:38;;;;;;;16.88;3.60;;;;;;;;;;5073606;28;20127;-68
2022/01/28 13:28:10;;;;;;;17.88;3.05;;;;;;;;;;5069507;28;20494;-67
2022/01/28 13:30:39;;;;;;;15.80;2.85;;;;;;;;;;5053572;28;20049;-68
2022/01/28 13:33:10;;;;;;;23.92;3.67;;;;;;;;;;5072693;28;20158;-68
2022/01/28 13:35:37;;;;;;;20.95;4.18;;;;;;;;;;5063162;28;20047;-68
2022/01/28 13:38:07;;;;;;;16.58;2.72;;;;;;;;;;5068976;28;20036;-67
2022/01/28 13:40:35;;;;;;;21.23;3.50;;;;;;;;;;5070968;28;20501;-69
2022/01/28 13:43:07;;;;;;;21.73;2.95;;;;;;;;;;5069975;22;20072;-67
2022/01/28 13:45:56;;;;;;;16.10;3.50;;;;;;;;;;5073053;28;20064;-67
2022/01/28 13:48:34;;;;;;;13.95;3.05;;;;;;;;;;5064933;28;20127;-66
2022/01/28 13:51:15;;;;;;;21.23;3.15;;;;;;;;;;5071241;28;20052;-66
2022/01/28 13:54:15;;;;;;;18.35;3.15;;;;;;;;;;5073311;28;20079;-67
2022/01/28 13:56:46;;;;;;;20.25;3.28;;;;;;;;;;5072573;28;20067;-66
2022/01/28 13:59:12;;;;;;;;;;;;;;;;;;5073619;28;20045;-66
2022/01/28 14:01:38;;;;;;;20.60;3.40;;;;;;;;;;5071867;28;19923;-66
2022/01/28 14:04:05;;;;;;;14.25;3.53;;;;;;;;;;5072974;28;20071;-66
2022/01/28 14:06:31;;;;;;;17.83;3.80;;;;;;;;;;5072743;28;20032;-66
2022/01/28 14:09:04;;;;;;;16.17;3.45;;;;;;;;;;5069356;28;20079;-66
2022/01/28 14:11:37;;;;;;;22.77;3.75;;;;;;;;;;5066996;28;20040;-66
2022/01/28 14:14:14;;;;;;;17.20;3.85;;;;;;;;;;5069166;28;20040;-67
2022/01/28 14:16:41;;;;;;;19.20;3.63;;;;;;;;;;5071629;28;20052;-67
2022/01/28 14:19:07;;;;;;;24.10;3.95;;;;;;;;;;5056184;28;20117;-67
2022/01/28 14:21:33;;;;;;;18.15;3.60;;;;;;;;;;5072571;28;20112;-66
2022/01/28 14:23:59;;;;;;;17.02;4.05;;;;;;;;;;5071207;28;20610;-67
2022/01/28 14:26:25;;;;;;;20.75;3.78;;;;;;;;;;5070989;28;20086;-66
2022/01/28 14:31:23;;;;;;;19.52;3.65;;;;;;;;;;5072235;28;20037;-67
2022/01/28 14:33:49;;;;;;;19.05;3.20;;;;;;;;;;5068290;28;20727;-66
2022/01/28 14:36:16;;;;;;;21.10;3.88;;;;;;;;;;5065741;28;20044;-66
2022/01/28 14:38:42;;;;;;;15.75;3.15;;;;;;;;;;5062952;28;20037;-66
2022/01/28 14:41:10;;;;;;;11.27;2.67;;;;;;;;;;5052162;28;20059;-66
2022/01/28 14:43:36;;;;;;;17.50;2.88;;;;;;;;;;5071075;28;20048;-67
2022/01/28 14:46:02;;;;;;;13.32;2.70;;;;;;;;;;5069544;28;20066;-67
2022/01/28 14:48:28;;;;;;;16.67;3.30;;;;;;;;;;5072137;28;20035;-67
2022/01/28 14:50:55;;;;;;;18.30;3.10;;;;;;;;;;5071093;28;20565;-67
2022/01/28 14:53:21;;;;;;;17.48;2.80;;;;;;;;;;5071745;28;20116;-67
2022/01/28 14:55:46;;;;;;;14.57;2.97;;;;;;;;;;5067520;28;20115;-67
2022/01/28 14:58:12;;;;;;;15.90;3.05;;;;;;;;;;5069635;28;20090;-67
2022/01/28 15:00:38;;;;;;;18.45;3.65;;;;;;;;;;5070549;28;20032;-67
2022/01/28 15:03:06;;;;;;;20.05;3.22;;;;;;;;;;5068176;28;20090;-67
2022/01/28 15:05:34;;;;;;;13.05;3.03;;;;;;;;;;5071345;28;20490;-67
2022/01/28 15:08:06;;;;;;;17.98;3.17;;;;;;;;;;5069394;28;20094;-67
2022/01/28 15:10:32;;;;;;;14.43;2.55;;;;;;;;;;5069924;28;20044;-66
2022/01/28 15:12:58;;;;;;;12.45;2.65;;;;;;;;;;5068858;28;20047;-66
2022/01/28 15:15:24;;;;;;;12.75;3.22;;;;;;;;;;5063732;28;20225;-66
2022/01/28 15:17:50;;;;;;;11.82;2.40;;;;;;;;;;5070919;28;20041;-66
2022/01/28 15:20:16;;;;;;;16.80;2.75;;;;;;;;;;5070616;28;20440;-66
2022/01/28 15:22:42;;;;;;;15.65;2.50;;;;;;;;;;5067690;28;20487;-66
2022/01/28 15:25:09;;;;;;;16.75;3.28;;;;;;;;;;5065962;28;20029;-66
2022/01/28 15:27:35;;;;;;;17.13;3.10;;;;;;;;;;5067720;28;20513;-66
2022/01/28 15:30:05;;;;;;;16.95;2.88;;;;;;;;;;5070381;28;20452;-66
2022/01/28 15:37:52;;;;;;;14.15;2.50;;;;;;;;;;5067927;28;20128;-67
2022/01/28 15:40:18;;;;;;;10.32;2.20;;;;;;;;;;5071197;28;20079;-67
2022/01/28 15:42:46;;;;;;;18.33;2.50;;;;;;;;;;5070711;28;20120;-67
2022/01/28 15:45:12;;;;;;;11.88;4.00;;;;;;;;;;5070688;28;20490;-67
2022/01/28 15:47:39;;;;;;;22.33;10.23;;;;;;;;;;5070937;28;20040;-67
2022/01/28 15:50:05;;;;;;;16.38;3.35;;;;;;;;;;5069618;28;20052;-67
2022/01/28 15:52:33;;;;;;;17.05;4.50;;;;;;;;;;5064524;28;20057;-67
2022/01/28 15:54:59;;;;;;;14.68;3.03;;;;;;;;;;5065312;28;20036;-67
2022/01/28 15:57:25;;;;;;;14.98;3.50;;;;;;;;;;5070363;28;20038;-66
2022/01/28 15:59:51;;;;;;;21.42;3.95;;;;;;;;;;5070830;28;20135;-66
2022/01/28 16:02:17;;;;;;;19.30;3.38;;;;;;;;;;5066051;28;20029;-66
2022/01/28 16:04:45;;;;;;;18.15;3.58;;;;;;;;;;5066408;28;20379;-66
2022/01/28 16:07:13;;;;;;;13.05;2.75;;;;;;;;;;5067044;28;20044;-66
2022/01/28 16:09:47;;;;;;;14.40;3.38;;;;;;;;;;5066349;28;20044;-66
2022/01/28 16:12:29;;;;;;;15.63;3.63;;;;;;;;;;5066036;28;20052;-66
2022/01/28 16:14:55;;;;;;;21.20;4.57;;;;;;;;;;5068842;28;20059;-66
2022/01/28 16:17:36;;;;;;;22.40;6.13;;;;;;;;;;5070309;28;20490;-65
2022/01/28 16:20:03;;;;;;;22.52;5.32;;;;;;;;;;5067418;28;20028;-66
2022/01/28 16:22:29;;;;;;;24.00;12.48;;;;;;;;;;5070134;28;20033;-66
2022/01/28 16:24:55;;;;;;;17.13;3.83;;;;;;;;;;5069729;28;20132;-66
2022/01/28 16:27:20;;;;;;;18.13;3.45;;;;;;;;;;5067741;28;20406;-66
2022/01/28 16:29:47;;;;;;;25.80;9.15;;;;;;;;;;5065994;28;20549;-66